createdAt,value
2022-08-23T00:05:27.097Z,18.62
2022-08-23T00:15:29.736Z,18.70
2022-08-23T00:25:32.282Z,18.70
2022-08-23T00:35:34.669Z,18.85
2022-08-23T00:46:02.959Z,18.95
2022-08-23T00:56:09.305Z,18.92
2022-08-23T01:06:19.872Z,18.76
2022-08-23T01:16:33.864Z,18.83
2022-08-23T01:26:36.792Z,18.81
2022-08-23T01:36:39.734Z,18.82
2022-08-23T01:46:45.556Z,18.84
2022-08-23T01:56:48.676Z,18.89
2022-08-23T02:06:51.536Z,18.94
2022-08-23T02:17:03.681Z,18.91
2022-08-23T02:27:08.745Z,18.88
2022-08-23T02:37:15.315Z,18.88
2022-08-23T02:47:19.204Z,18.93
2022-08-23T02:57:34.327Z,18.94
2022-08-23T03:07:42.350Z,18.94
2022-08-23T03:17:47.151Z,18.80
2022-08-23T03:27:50.117Z,18.55
2022-08-23T03:37:55.419Z,18.49
2022-08-23T03:47:59.504Z,18.40
2022-08-23T03:58:02.924Z,18.51
2022-08-23T04:08:15.002Z,18.64
2022-08-23T04:18:21.708Z,18.71
2022-08-23T04:28:24.637Z,18.80
2022-08-23T04:38:28.528Z,18.99
2022-08-23T04:48:36.446Z,19.21
2022-08-23T04:58:39.453Z,19.26
2022-08-23T05:08:42.998Z,19.46
2022-08-23T05:18:50.111Z,19.68
2022-08-23T05:28:53.032Z,19.70
2022-08-23T05:39:00.849Z,19.98
2022-08-23T05:49:26.734Z,20.00
2022-08-23T05:59:50.740Z,20.35
2022-08-23T06:10:16.266Z,20.22
2022-08-23T06:20:45.803Z,20.88
2022-08-23T06:30:58.511Z,21.11
2022-08-23T06:41:09.117Z,21.72
2022-08-23T06:51:21.319Z,21.44
2022-08-23T07:01:45.635Z,21.96
2022-08-23T07:11:59.643Z,23.90
2022-08-23T07:22:04.620Z,23.23
2022-08-23T07:32:08.755Z,22.88
2022-08-23T07:42:22.951Z,24.11
2022-08-23T07:52:30.866Z,24.98
2022-08-23T08:02:34.147Z,24.56
2022-08-23T08:12:38.767Z,25.74
2022-08-23T08:22:58.586Z,26.27
2022-08-23T08:33:03.021Z,26.65
2022-08-23T08:43:51.552Z,27.07
2022-08-23T08:53:56.010Z,26.28
2022-08-23T09:04:07.248Z,27.12
2022-08-23T09:14:35.785Z,28.16
2022-08-23T09:24:41.343Z,25.82
2022-08-23T09:45:49.714Z,27.85
2022-08-23T09:55:59.079Z,28.93
2022-08-23T10:06:03.016Z,28.78
2022-08-23T10:16:22.144Z,29.36
2022-08-23T10:26:44.317Z,29.10
2022-08-23T10:37:05.601Z,28.69
2022-08-23T10:47:18.912Z,28.05
2022-08-23T10:57:24.227Z,27.14
2022-08-23T11:07:28.835Z,29.89
2022-08-23T11:17:56.739Z,30.76
2022-08-23T11:28:19.399Z,30.56
2022-08-23T11:38:47.464Z,28.74
2022-08-23T11:48:59.571Z,29.87
2022-08-23T11:59:41.630Z,31.71
2022-08-23T12:09:44.655Z,30.77
2022-08-23T12:20:17.219Z,31.07
2022-08-23T12:30:34.205Z,30.03
2022-08-23T12:40:50.303Z,31.66
2022-08-23T12:50:56.166Z,32.02
2022-08-23T13:01:03.923Z,32.34
2022-08-23T13:11:09.238Z,32.73
2022-08-23T13:21:24.051Z,31.73
2022-08-23T13:31:26.835Z,32.28
2022-08-23T13:41:38.593Z,31.75
2022-08-23T13:51:45.990Z,32.23
2022-08-23T14:01:48.826Z,31.03
2022-08-23T14:11:57.638Z,31.16
2022-08-23T14:22:00.992Z,31.35
2022-08-23T14:32:04.720Z,31.75
2022-08-23T14:42:07.710Z,31.51
2022-08-23T14:52:11.704Z,31.52
2022-08-23T15:02:21.316Z,30.82
2022-08-23T15:22:55.910Z,30.57
2022-08-23T15:32:58.636Z,30.48
2022-08-23T15:43:03.467Z,30.17
2022-08-23T15:53:06.901Z,29.87
2022-08-23T16:03:19.510Z,29.70
2022-08-23T16:13:23.972Z,29.23
2022-08-23T16:23:26.851Z,28.49
2022-08-23T16:33:29.776Z,28.39
2022-08-23T16:43:32.777Z,28.23
2022-08-23T16:53:35.759Z,27.60
2022-08-23T17:03:38.620Z,27.20
2022-08-23T17:13:41.756Z,26.34
2022-08-23T17:23:44.700Z,25.67
2022-08-23T17:33:47.696Z,25.19
2022-08-23T17:43:51.453Z,24.78
2022-08-23T17:53:55.902Z,24.46
2022-08-23T18:04:00.699Z,24.13
2022-08-23T18:14:03.645Z,23.80
2022-08-23T18:24:07.558Z,23.72
2022-08-23T18:34:11.260Z,23.39
2022-08-23T18:44:13.920Z,23.35
2022-08-23T18:54:17.038Z,23.07
2022-08-23T19:04:19.954Z,22.78
2022-08-23T19:14:23.109Z,22.71
2022-08-23T19:24:27.723Z,22.57
2022-08-23T19:34:30.936Z,22.36
2022-08-23T19:44:35.807Z,22.36
2022-08-23T19:54:39.083Z,22.25
2022-08-23T20:04:42.757Z,22.26
2022-08-23T20:14:46.423Z,21.98
2022-08-23T20:24:52.389Z,22.13
2022-08-23T20:34:56.192Z,22.77
2022-08-23T20:44:58.826Z,23.50
2022-08-23T20:55:01.246Z,23.32
2022-08-23T21:05:06.281Z,23.12
2022-08-23T21:15:12.082Z,22.81
2022-08-23T21:25:15.136Z,22.79
2022-08-23T21:35:17.695Z,22.49
2022-08-23T21:45:20.290Z,22.42
2022-08-23T21:55:23.392Z,21.43
2022-08-23T22:05:43.744Z,21.53
2022-08-23T22:15:46.787Z,21.49
2022-08-23T22:25:51.342Z,21.09
2022-08-23T22:35:54.173Z,21.47
2022-08-23T22:46:00.754Z,20.88
2022-08-23T22:56:04.476Z,21.17
2022-08-23T23:06:07.768Z,20.87
2022-08-23T23:16:16.095Z,20.98
2022-08-23T23:26:24.449Z,20.92
2022-08-23T23:36:27.119Z,20.95
2022-08-23T23:46:29.935Z,20.76
2022-08-23T23:56:40.084Z,20.81
